LQSA Airport Information

Runway Information
Runway 12 Length 8666 ft width 150 ft
Elevation 1643 ft Threshold 333 ft Heading 117
Runway 30 Length 8666 ft Width 150 ft
Elevation 1690 ft Threshold 1666 ft Heading 297
Airport Frequencies
Type APP Name APP Frequency 136.45 MHZ
Type GCA Name GCA Frequency 119.4 MHZ
Type GND Name GND Frequency 121.9 MHZ
Type TWR Name TWR Frequency 118.25 MHZ
Airport Navaids
Type NDB Name Sarajevo Frequency 436 KHZ
Type VOR-DME Name Sarajevo Frequency 116700 KHZ
Type NDB Name Kobiljaca Frequency 358 KHZ
Type VORTAC Name Sarajevo Frequency 108850 KHZ
Airport Weather Information & NOTAM
ADDS - METARS form results

(1104 UTC 23 May 2019)
Data provider http://aviationweather.gov/metar/data/
 
METAR text: LQSA 231100Z 32007KT 290V040 9999 SCT035TCU SCT045 19/09 Q1015 TEMPO 30014KT TSRA FEW035CB SCT045
Conditions at: LQSA (SARAJEVO/BUTMIR , CS) observed 1100 UTC 23 May 2019
Temperature: 19.0°C (66°F)
Dewpoint: 9.0°C (48°F) [RH = 52%]
Pressure (altimeter): 29.97 inches Hg (1015.0 mb)
Winds: from the NW (320 degrees) at 8 MPH (7 knots; 3.6 m/s)
Visibility: 6 or more miles (10+ km)
Ceiling: at least 12,000 feet AGL
Clouds: scattered clouds at 3500 feet AGL
scattered clouds at 4500 feet AGL
Weather: no significant weather observed at this time

METAR text: LQSA 231030Z VRB03KT 9999 SCT035TCU SCT045 19/10 Q1016 TEMPO 30014KT TSRA FEW035CB SCT045
Conditions at: LQSA (SARAJEVO/BUTMIR , CS) observed 1030 UTC 23 May 2019
Temperature: 19.0°C (66°F)
Dewpoint: 10.0°C (50°F) [RH = 56%]
Pressure (altimeter): 30.00 inches Hg (1016.0 mb)
Winds: variable direction winds at 3 MPH (3 knots; 1.5 m/s)
Visibility: 6 or more miles (10+ km)
Ceiling: at least 12,000 feet AGL
Clouds: scattered clouds at 3500 feet AGL
scattered clouds at 4500 feet AGL
Weather: no significant weather observed at this time

Forecast for: LQSA (SARAJEVO/BUTMIR , CS)
Text: TAF LQSA 230500Z 2306/2406 VRB02KT 9999 SCT060 TX18/2313Z TN09/2404Z
Forecast period: 0600 UTC 23 May 2019 to 0600 UTC 24 May 2019
Forecast type: FROM: standard forecast or significant change
Winds: variable direction winds at 2 MPH (2 knots; 1.0 m/s)
Visibility: 6 or more miles 10+ km)
Ceiling: at least 12,000 feet AGL
Clouds: scattered clouds at 6000 feet AGL
Weather: no significant weather forecast for this period
Text: TEMPO 2310/2316 VRB12KT TSRA FEW035CB BKN045
Forecast period: 1000 to 1600 UTC 23 May 2019
Forecast type: TEMPORARY: The following changes expected for less than half the time period
Winds: variable direction winds at 14 MPH (12 knots; 6.2 m/s)
Visibility: missing
Ceiling: 4500 feet AGL
Clouds: few clouds at 3500 feet AGL
broken clouds at 4500 feet AGL
Weather: TSRA  (rain associated with thunderstorm(s))